Time;durP1;ratioP1;P1;durP2;ratioP2;P2;SDS_P1;SDS_P2;PMS_P1;PMS_P2;Temp;Humidity;BMP_temperature;BMP_pressure;BME280_temperature;BME280_humidity;BME280_pressure;Samples;Min_cycle;Max_cycle;Signal;HPM_P1;HPM_P2
2022/12/20 00:04:46;;;;;;;82.53;27.00;;;1.50;99.90;;;;;;21182966;28;20024;-78
2022/12/20 00:14:47;;;;;;;71.18;26.90;;;1.40;99.90;;;;;;21163014;28;20068;-78
2022/12/20 00:24:48;;;;;;;82.43;29.15;;;1.30;99.90;;;;;;21180152;27;20038;-78
2022/12/20 00:34:49;;;;;;;70.25;25.63;;;1.30;99.90;;;;;;21180778;28;20035;-78
2022/12/20 00:44:49;;;;;;;83.80;24.15;;;1.40;99.90;;;;;;21180417;28;20024;-77
2022/12/20 00:54:50;;;;;;;68.93;22.70;;;1.30;99.90;;;;;;21177988;28;20024;-77
2022/12/20 01:04:51;;;;;;;65.53;22.42;;;1.10;99.90;;;;;;21174682;28;20043;-77
2022/12/20 01:14:52;;;;;;;75.53;28.05;;;1.00;99.90;;;;;;21154665;28;20451;-77
2022/12/20 01:24:52;;;;;;;89.05;30.33;;;1.00;99.90;;;;;;21145658;28;20031;-77
2022/12/20 01:34:53;;;;;;;73.82;24.10;;;1.40;99.90;;;;;;21140537;28;20046;-78
2022/12/20 01:44:56;;;;;;;65.05;22.48;;;1.40;99.90;;;;;;21147597;28;20094;-78
2022/12/20 01:55:05;;;;;;;73.38;25.73;;;1.10;99.90;;;;;;21147765;28;20028;-77
2022/12/20 02:05:06;;;;;;;88.13;28.27;;;1.20;99.90;;;;;;21137895;28;20039;-76
2022/12/20 02:15:26;;;;;;;74.65;26.48;;;1.20;99.90;;;;;;21151541;28;20040;-77
2022/12/20 02:26:02;;;;;;;67.60;23.02;;;1.20;99.90;;;;;;21166155;28;20118;-78
2022/12/20 02:36:03;;;;;;;76.18;26.02;;;1.20;99.90;;;;;;21179211;28;20038;-77
2022/12/20 02:46:05;;;;;;;78.88;27.77;;;1.20;99.90;;;;;;21216401;27;20020;-77
2022/12/20 02:56:13;;;;;;;68.15;23.83;;;1.20;99.90;;;;;;21183767;28;20046;-78
2022/12/20 03:06:15;;;;;;;66.68;24.42;;;1.20;99.90;;;;;;21178600;22;20058;-80
2022/12/20 03:16:16;;;;;;;72.50;26.45;;;1.10;99.90;;;;;;21160562;28;20023;-78
2022/12/20 03:26:17;;;;;;;62.63;23.13;;;1.10;99.90;;;;;;21117426;28;20110;-79
2022/12/20 03:36:23;;;;;;;64.43;21.80;;;1.20;99.90;;;;;;21154547;28;20045;-80
2022/12/20 03:46:28;;;;;;;73.20;25.33;;;1.20;99.90;;;;;;21146696;28;20574;-80
2022/12/20 03:56:30;;;;;;;82.70;27.35;;;1.20;99.90;;;;;;21083822;28;20101;-81
2022/12/20 04:06:31;;;;;;;73.57;26.60;;;1.20;99.90;;;;;;21099466;28;20036;-78
2022/12/20 04:16:32;;;;;;;71.95;27.33;;;1.30;99.90;;;;;;21120028;28;20500;-79
2022/12/20 04:26:35;;;;;;;75.97;23.20;;;1.30;99.90;;;;;;21101876;28;20056;-81
2022/12/20 04:36:38;;;;;;;70.38;24.67;;;1.20;99.90;;;;;;21097736;28;20042;-81
2022/12/20 04:46:43;;;;;;;63.70;22.00;;;1.30;99.90;;;;;;21090741;28;20135;-81
2022/12/20 04:56:48;;;;;;;70.22;24.85;;;1.20;99.90;;;;;;21091462;28;20039;-79
2022/12/20 05:06:54;;;;;;;72.43;24.08;;;1.20;99.90;;;;;;21091888;28;20035;-80
2022/12/20 05:16:55;;;;;;;66.35;23.45;;;1.20;99.90;;;;;;21139833;28;20096;-81
2022/12/20 05:26:56;;;;;;;65.38;22.75;;;1.20;99.90;;;;;;21160843;28;20099;-80
2022/12/20 05:36:57;;;;;;;54.85;22.08;;;1.00;99.90;;;;;;21162846;28;20085;-78
2022/12/20 05:47:02;;;;;;;82.22;26.45;;;0.80;99.90;;;;;;21104091;28;20050;-82
2022/12/20 05:57:05;;;;;;;71.22;24.73;;;0.90;99.90;;;;;;21077535;28;20043;-80
2022/12/20 06:07:12;;;;;;;69.35;23.13;;;0.90;99.90;;;;;;21071802;28;20379;-79
2022/12/20 06:17:14;;;;;;;74.55;26.55;;;0.80;99.90;;;;;;21091879;28;20024;-80
2022/12/20 06:27:15;;;;;;;69.65;25.55;;;0.90;99.90;;;;;;21110802;28;20058;-81
2022/12/20 06:37:16;;;;;;;88.35;25.77;;;0.80;99.90;;;;;;21128090;28;20394;-80
2022/12/20 06:47:17;;;;;;;83.10;25.42;;;0.90;99.90;;;;;;21080301;28;20082;-79
2022/12/20 06:57:18;;;;;;;79.43;27.00;;;1.00;99.90;;;;;;21067343;28;20124;-80
2022/12/20 07:07:22;;;;;;;83.32;25.25;;;1.00;99.90;;;;;;21086188;28;20035;-81
2022/12/20 07:17:22;;;;;;;83.63;26.40;;;1.00;99.90;;;;;;21100550;28;20031;-80
2022/12/20 07:27:23;;;;;;;83.50;25.58;;;1.00;99.90;;;;;;21102934;28;20036;-80
2022/12/20 07:37:24;;;;;;;72.22;25.45;;;1.10;99.90;;;;;;21086667;28;20043;-80
2022/12/20 07:47:25;;;;;;;76.57;24.90;;;1.30;99.90;;;;;;21102669;28;20040;-80
2022/12/20 07:57:40;;;;;;;83.40;28.42;;;1.30;99.90;;;;;;21060661;28;20040;-80
2022/12/20 08:07:43;;;;;;;87.10;28.20;;;1.40;99.90;;;;;;21061124;28;20490;-80
2022/12/20 08:17:44;;;;;;;77.28;25.60;;;1.30;99.90;;;;;;21052890;28;20055;-80
2022/12/20 08:27:44;;;;;;;75.53;27.20;;;1.50;99.90;;;;;;21068721;28;20036;-80
2022/12/20 08:37:45;;;;;;;70.85;25.88;;;1.60;99.90;;;;;;21127602;28;20043;-80
2022/12/20 08:47:46;;;;;;;64.03;24.33;;;1.80;99.90;;;;;;21168602;28;20032;-78
2022/12/20 08:57:47;;;;;;;65.72;25.05;;;2.00;99.90;;;;;;21072713;28;20032;-80
2022/12/20 09:07:48;;;;;;;65.20;23.35;;;2.10;99.90;;;;;;21033494;28;20048;-79
2022/12/20 09:17:49;;;;;;;63.22;21.38;;;2.10;99.90;;;;;;21037458;28;20125;-79
2022/12/20 09:27:49;;;;;;;62.40;21.25;;;2.00;99.90;;;;;;20968705;22;20135;-78
2022/12/20 09:37:50;;;;;;;56.00;19.90;;;2.10;99.90;;;;;;20922761;28;20029;-78
2022/12/20 09:47:51;;;;;;;47.30;20.63;;;2.20;99.90;;;;;;21001485;28;20032;-77
2022/12/20 09:58:10;;;;;;;49.80;19.13;;;2.40;99.90;;;;;;21000450;28;20032;-79
2022/12/20 10:08:46;;;;;;;41.38;18.80;;;2.60;99.90;;;;;;20940946;28;20055;-80
2022/12/20 10:19:11;;;;;;;50.13;19.70;;;2.70;99.90;;;;;;20961437;28;20079;-80
2022/12/20 10:29:12;;;;;;;46.55;19.85;;;2.70;99.90;;;;;;21019216;28;20207;-79
2022/12/20 10:39:13;;;;;;;43.67;17.20;;;2.80;99.90;;;;;;21020608;28;20399;-78
2022/12/20 10:49:40;;;;;;;43.70;17.88;;;3.20;99.90;;;;;;21019751;28;20027;-78
2022/12/20 10:59:44;;;;;;;40.58;18.00;;;3.40;99.90;;;;;;21013038;28;20124;-79
2022/12/20 11:09:56;;;;;;;48.35;19.63;;;3.40;99.90;;;;;;21024377;28;20040;-80
2022/12/20 11:20:03;;;;;;;47.80;19.42;;;3.50;99.90;;;;;;21022973;28;20039;-79
2022/12/20 11:30:19;;;;;;;47.42;18.40;;;3.60;99.90;;;;;;21013038;28;20064;-80
2022/12/20 11:40:35;;;;;;;38.45;17.33;;;3.70;99.90;;;;;;21024230;28;20508;-79
2022/12/20 11:51:00;;;;;;;39.22;16.50;;;3.80;99.90;;;;;;21024566;28;20056;-79
2022/12/20 12:01:18;;;;;;;33.47;14.90;;;5.50;99.90;;;;;;21020356;28;20032;-79
2022/12/20 12:11:33;;;;;;;36.38;15.75;;;6.80;99.90;;;;;;21004633;28;20040;-78
2022/12/20 12:21:43;;;;;;;32.95;15.30;;;5.50;99.90;;;;;;20988178;28;20016;-79
2022/12/20 12:32:01;;;;;;;36.25;15.45;;;5.30;99.90;;;;;;20967840;28;20037;-80
2022/12/20 12:42:17;;;;;;;33.00;15.93;;;6.50;99.90;;;;;;20973254;28;20040;-79
2022/12/20 12:52:42;;;;;;;29.33;13.50;;;7.60;99.90;;;;;;20989511;28;20048;-79
2022/12/20 13:02:50;;;;;;;27.23;13.10;;;6.90;99.90;;;;;;20958824;28;20521;-79
2022/12/20 13:12:51;;;;;;;24.95;12.05;;;7.40;99.90;;;;;;20990980;28;20487;-80
2022/12/20 13:23:06;;;;;;;27.90;13.50;;;6.30;99.90;;;;;;20952228;28;20044;-81
2022/12/20 13:33:21;;;;;;;37.45;16.75;;;6.20;99.90;;;;;;21005491;28;20024;-81
2022/12/20 13:43:22;;;;;;;30.35;14.13;;;5.90;99.90;;;;;;20990455;28;20576;-79
2022/12/20 13:53:24;;;;;;;;;;;5.60;99.90;;;;;;20984880;28;20033;-78
2022/12/20 14:03:27;;;;;;;36.33;16.70;;;5.80;99.90;;;;;;20929081;28;19920;-80
2022/12/20 14:13:28;;;;;;;27.80;12.90;;;6.70;99.90;;;;;;20968643;28;20040;-79
2022/12/20 14:23:51;;;;;;;33.55;14.38;;;6.60;99.90;;;;;;21004756;28;20031;-78
2022/12/20 14:34:04;;;;;;;25.77;11.65;;;6.50;99.90;;;;;;20989632;28;20036;-79
2022/12/20 14:44:21;;;;;;;31.23;13.93;;;7.40;99.90;;;;;;20966266;28;20085;-79
2022/12/20 14:54:26;;;;;;;30.25;13.75;;;7.60;99.90;;;;;;20996950;28;20040;-78
2022/12/20 15:04:32;;;;;;;25.70;10.75;;;6.80;99.90;;;;;;21014393;28;20519;-80
2022/12/20 15:14:35;;;;;;;17.58;8.57;;;6.50;99.90;;;;;;21022088;28;20036;-79
2022/12/20 15:24:36;;;;;;;32.92;14.20;;;6.10;99.90;;;;;;20992718;22;20048;-85
2022/12/20 15:34:38;;;;;;;35.72;15.93;;;5.50;99.90;;;;;;21006227;28;20032;-85
2022/12/20 15:44:39;;;;;;;32.35;12.55;;;5.40;99.90;;;;;;20992640;28;20065;-85
2022/12/20 15:54:40;;;;;;;33.58;15.93;;;5.20;99.90;;;;;;20943166;28;20511;-83
2022/12/20 16:04:41;;;;;;;;;;;5.30;99.90;;;;;;20995020;28;20488;-84
2022/12/20 16:14:42;;;;;;;34.47;15.93;;;5.30;99.90;;;;;;20991619;28;19916;-85
2022/12/20 16:24:43;;;;;;;;;;;5.20;99.90;;;;;;20895222;28;20589;-85
2022/12/20 16:34:44;;;;;;;38.28;17.67;;;5.00;99.90;;;;;;20981226;28;19912;-84
2022/12/20 16:44:49;;;;;;;35.10;16.25;;;4.90;99.90;;;;;;20943521;28;20039;-85
2022/12/20 16:54:50;;;;;;;38.00;16.25;;;4.90;99.90;;;;;;20929192;28;20032;-85
2022/12/20 17:04:51;;;;;;;;;;;4.90;99.90;;;;;;20927223;28;20132;-84
2022/12/20 17:14:51;;;;;;;35.72;17.08;;;4.70;99.90;;;;;;20960153;28;19915;-85
2022/12/20 17:24:52;;;;;;;39.67;16.85;;;4.80;99.90;;;;;;20943589;28;1153612;-86
2022/12/20 17:34:54;;;;;;;35.15;16.40;;;5.00;99.90;;;;;;20992835;28;20484;-86
2022/12/20 17:44:55;;;;;;;34.60;15.95;;;4.80;99.90;;;;;;20992492;28;20060;-85
2022/12/20 17:54:55;;;;;;;37.20;16.60;;;4.80;99.90;;;;;;20975402;28;20040;-85
2022/12/20 18:04:56;;;;;;;34.63;15.13;;;4.60;99.90;;;;;;20967483;28;20060;-85
2022/12/20 18:14:57;;;;;;;;;;;4.60;99.90;;;;;;20975454;28;20501;-84
2022/12/20 18:24:58;;;;;;;33.10;14.13;;;4.70;99.90;;;;;;20961159;28;19912;-85
2022/12/20 18:34:59;;;;;;;;;;;4.70;99.90;;;;;;20914079;28;21950;-83
2022/12/20 18:44:59;;;;;;;34.97;15.20;;;4.70;99.90;;;;;;20986205;28;20028;-84
2022/12/20 18:55:00;;;;;;;31.75;14.98;;;4.60;99.90;;;;;;20965960;28;20224;-85
2022/12/20 19:05:01;;;;;;;;;;;4.60;99.90;;;;;;20966729;28;20041;-84
2022/12/20 19:15:02;;;;;;;29.92;13.68;;;4.60;99.90;;;;;;20981000;28;19914;-84
2022/12/20 19:25:03;;;;;;;28.17;14.15;;;4.60;99.90;;;;;;20999417;28;20036;-82
2022/12/20 19:35:04;;;;;;;26.70;13.30;;;4.60;99.90;;;;;;20997017;28;20071;-83
2022/12/20 19:45:05;;;;;;;30.77;14.88;;;4.50;99.90;;;;;;20991280;28;20074;-84
2022/12/20 19:55:06;;;;;;;31.55;14.65;;;4.40;99.90;;;;;;20921575;28;20036;-84
2022/12/20 20:05:07;;;;;;;33.67;13.48;;;4.40;99.90;;;;;;20930091;28;20037;-83
2022/12/20 20:15:08;;;;;;;37.20;14.95;;;4.30;99.90;;;;;;20978343;28;20035;-83
2022/12/20 20:25:09;;;;;;;28.85;12.93;;;4.30;99.90;;;;;;21074430;28;20028;-81
2022/12/20 20:35:10;;;;;;;24.38;13.02;;;4.40;99.90;;;;;;21022306;28;20032;-81
2022/12/20 20:45:11;;;;;;;31.80;14.05;;;4.40;99.90;;;;;;21023314;28;20040;-81
2022/12/20 20:55:12;;;;;;;25.33;12.02;;;4.40;99.90;;;;;;21036825;28;20033;-81
2022/12/20 21:05:13;;;;;;;24.08;11.88;;;4.40;99.90;;;;;;21021083;28;20028;-83
2022/12/20 21:15:14;;;;;;;36.08;14.45;;;4.50;99.90;;;;;;21038218;28;20028;-84
2022/12/20 21:25:16;;;;;;;31.83;14.40;;;4.10;99.90;;;;;;21012983;22;20045;-78
2022/12/20 21:35:16;;;;;;;33.80;14.32;;;4.00;99.90;;;;;;21021413;28;20449;-80
2022/12/20 21:45:17;;;;;;;30.92;15.65;;;4.00;99.90;;;;;;20966033;28;20094;-80
2022/12/20 21:55:19;;;;;;;35.63;15.13;;;4.00;99.90;;;;;;20955992;28;20037;-79
2022/12/20 22:05:20;;;;;;;31.40;15.82;;;4.00;99.90;;;;;;21017997;28;20032;-80
2022/12/20 22:15:20;;;;;;;33.20;15.73;;;3.90;99.90;;;;;;20999452;28;20079;-77
2022/12/20 22:25:22;;;;;;;34.15;14.27;;;3.90;99.90;;;;;;20957223;28;20033;-78
2022/12/20 22:35:23;;;;;;;36.92;15.35;;;3.80;99.90;;;;;;20952570;28;20029;-80
2022/12/20 22:45:23;;;;;;;27.23;13.35;;;3.80;99.90;;;;;;20985575;28;20068;-80
2022/12/20 22:55:25;;;;;;;30.63;15.00;;;3.90;99.90;;;;;;20957901;28;20037;-78
2022/12/20 23:05:25;;;;;;;34.60;14.57;;;3.80;99.90;;;;;;20940296;28;20029;-79
2022/12/20 23:15:42;;;;;;;32.05;13.85;;;3.90;99.90;;;;;;20968891;28;20028;-79
2022/12/20 23:25:42;;;;;;;30.48;14.02;;;3.90;99.90;;;;;;20983699;28;20032;-77
2022/12/20 23:35:43;;;;;;;31.08;15.88;;;4.00;99.90;;;;;;20986560;28;20050;-79
2022/12/20 23:45:44;;;;;;;31.20;15.43;;;3.90;99.90;;;;;;20982500;28;20029;-80
2022/12/20 23:55:59;;;;;;;31.70;13.00;;;3.80;99.90;;;;;;20948189;28;20047;-79
